Time;durP1;ratioP1;P1;durP2;ratioP2;P2;SDS_P1;SDS_P2;PMS_P1;PMS_P2;Temp;Humidity;BMP_temperature;BMP_pressure;BME280_temperature;BME280_humidity;BME280_pressure;Samples;Min_cycle;Max_cycle;Signal;HPM_P1;HPM_P2
2022/08/13 00:02:32;;;;;;;3.80;2.20;;;18.10;99.90;;;;;;5032974;28;20092;-67
2022/08/13 00:07:22;;;;;;;2.90;2.00;;;18.40;99.90;;;;;;5032923;28;20045;-67
2022/08/13 00:09:48;;;;;;;2.70;2.20;;;18.50;99.90;;;;;;5033631;28;20052;-68
2022/08/13 00:15:33;;;;;;;3.50;2.20;;;18.60;99.90;;;;;;5033104;28;20053;-67
2022/08/13 00:18:03;;;;;;;3.55;2.10;;;18.60;99.90;;;;;;5025569;28;20057;-67
2022/08/13 00:20:42;;;;;;;2.85;2.30;;;18.50;99.90;;;;;;5036851;28;20063;-67
2022/08/13 00:23:13;;;;;;;3.47;2.30;;;18.20;99.90;;;;;;5037051;28;20045;-67
2022/08/13 00:25:39;;;;;;;3.67;2.40;;;18.00;99.90;;;;;;5036710;28;20073;-67
2022/08/13 00:28:05;;;;;;;3.17;2.50;;;17.80;99.90;;;;;;5036362;28;20041;-67
2022/08/13 00:30:38;;;;;;;4.28;2.72;;;17.70;99.90;;;;;;5036600;28;20057;-67
2022/08/13 00:33:12;;;;;;;3.17;2.58;;;17.60;99.90;;;;;;5037052;28;20057;-67
2022/08/13 00:35:41;;;;;;;3.67;2.30;;;17.60;99.90;;;;;;5035952;28;20512;-68
2022/08/13 00:38:16;;;;;;;2.88;2.30;;;17.60;99.90;;;;;;5036255;28;20124;-67
2022/08/13 00:40:53;;;;;;;3.42;2.78;;;17.60;99.90;;;;;;5036172;28;20049;-67
2022/08/13 00:43:19;;;;;;;3.20;2.58;;;17.60;99.90;;;;;;5036698;28;20088;-67
2022/08/13 00:45:45;;;;;;;4.10;2.33;;;17.60;99.90;;;;;;5036085;28;20088;-67
2022/08/13 00:50:56;;;;;;;3.70;2.80;;;17.50;99.90;;;;;;5036068;28;20053;-67
2022/08/13 00:53:25;;;;;;;3.72;2.60;;;17.40;99.90;;;;;;5035919;28;20056;-67
2022/08/13 00:55:57;;;;;;;6.00;3.28;;;17.20;99.90;;;;;;5035874;28;20095;-67
2022/08/13 00:58:26;;;;;;;4.03;2.72;;;17.10;99.90;;;;;;5035951;28;20084;-67
2022/08/13 01:00:56;;;;;;;3.72;2.65;;;16.90;99.90;;;;;;5018596;28;20053;-67
2022/08/13 01:03:23;;;;;;;4.45;3.38;;;16.90;99.90;;;;;;5036020;28;20045;-67
2022/08/13 01:05:50;;;;;;;3.83;3.05;;;16.80;99.90;;;;;;5017993;28;20080;-67
2022/08/13 01:08:18;;;;;;;4.22;2.80;;;16.80;99.90;;;;;;5017971;28;20521;-67
2022/08/13 01:10:47;;;;;;;3.42;2.80;;;16.80;99.90;;;;;;5035641;28;20049;-67
2022/08/13 01:13:13;;;;;;;4.50;2.70;;;16.80;99.90;;;;;;5035313;28;20574;-68
2022/08/13 01:15:41;;;;;;;4.70;2.72;;;16.90;99.90;;;;;;5035409;28;20046;-67
2022/08/13 01:18:08;;;;;;;4.65;3.30;;;17.00;99.90;;;;;;5035506;28;20482;-67
2022/08/13 01:20:42;;;;;;;4.90;3.40;;;17.20;99.90;;;;;;5035460;28;20056;-67
2022/08/13 01:23:09;;;;;;;3.75;3.17;;;17.40;99.90;;;;;;5035457;28;20049;-67
2022/08/13 01:25:35;;;;;;;3.90;3.40;;;17.50;99.90;;;;;;5035342;28;20037;-67
2022/08/13 01:28:01;;;;;;;4.38;3.60;;;17.60;99.90;;;;;;5035276;28;20130;-67
2022/08/13 01:30:29;;;;;;;3.50;2.92;;;17.70;99.90;;;;;;5033853;28;20513;-67
2022/08/13 01:32:55;;;;;;;4.30;3.20;;;17.70;99.90;;;;;;5035139;28;20053;-67
2022/08/13 01:35:22;;;;;;;3.90;3.17;;;17.70;99.90;;;;;;5034762;28;20509;-67
2022/08/13 01:37:53;;;;;;;3.92;3.13;;;17.70;99.90;;;;;;5034854;28;20080;-67
2022/08/13 01:40:19;;;;;;;3.97;3.53;;;17.70;99.90;;;;;;5035178;28;20060;-67
2022/08/13 01:42:47;;;;;;;6.15;3.63;;;17.70;99.90;;;;;;5035012;28;20038;-67
2022/08/13 01:45:14;;;;;;;4.35;3.72;;;17.70;99.90;;;;;;5035021;28;20053;-67
2022/08/13 01:50:30;;;;;;;5.05;3.20;;;17.70;99.90;;;;;;5035404;28;20060;-67
2022/08/13 01:53:07;;;;;;;4.05;3.00;;;17.50;99.90;;;;;;5034923;28;20046;-68
2022/08/13 01:55:40;;;;;;;3.72;2.90;;;17.40;99.90;;;;;;5034794;28;20041;-67
2022/08/13 01:58:17;;;;;;;3.33;2.90;;;17.20;99.90;;;;;;5034777;28;20045;-67
2022/08/13 02:00:44;;;;;;;3.78;2.47;;;17.10;99.90;;;;;;5017598;28;20068;-67
2022/08/13 02:03:16;;;;;;;3.40;3.08;;;17.00;99.90;;;;;;5034657;28;20136;-67
2022/08/13 02:05:42;;;;;;;3.47;3.05;;;16.90;99.90;;;;;;5034681;28;20041;-67
2022/08/13 02:08:09;;;;;;;4.57;2.85;;;16.90;99.90;;;;;;5035109;28;20379;-67
2022/08/13 02:10:38;;;;;;;3.28;2.78;;;16.80;99.90;;;;;;5035285;28;20115;-67
2022/08/13 02:13:06;;;;;;;4.53;2.90;;;16.70;99.90;;;;;;5034449;28;20055;-67
2022/08/13 02:15:33;;;;;;;3.25;2.88;;;16.70;99.90;;;;;;5034252;28;20047;-67
2022/08/13 02:18:03;;;;;;;6.30;3.30;;;16.60;99.90;;;;;;5034350;28;20132;-67
2022/08/13 02:20:34;;;;;;;4.95;3.40;;;16.50;99.90;;;;;;5035177;28;20049;-67
2022/08/13 02:23:01;;;;;;;5.10;4.05;;;16.40;99.90;;;;;;5016514;28;20054;-67
2022/08/13 02:25:28;;;;;;;4.60;3.58;;;16.40;99.90;;;;;;5034244;28;20037;-67
2022/08/13 02:27:55;;;;;;;5.25;3.58;;;16.40;99.90;;;;;;5034869;28;20055;-67
2022/08/13 02:30:26;;;;;;;4.10;3.38;;;16.40;99.90;;;;;;5016369;28;20057;-67
2022/08/13 02:32:52;;;;;;;5.75;4.07;;;16.30;99.90;;;;;;5034449;28;20049;-67
2022/08/13 02:35:18;;;;;;;6.00;3.92;;;16.30;99.90;;;;;;5034733;28;20425;-67
2022/08/13 02:37:44;;;;;;;4.82;3.63;;;16.40;99.90;;;;;;5016324;28;20517;-67
2022/08/13 02:42:59;;;;;;;4.32;3.85;;;16.50;99.90;;;;;;5016596;28;20560;-67
2022/08/13 02:45:26;;;;;;;6.45;3.70;;;16.40;99.90;;;;;;5033460;28;20549;-67
2022/08/13 02:47:53;;;;;;;3.72;3.17;;;16.40;99.90;;;;;;5033727;28;20050;-67
2022/08/13 02:50:21;;;;;;;4.60;3.58;;;16.30;99.90;;;;;;5033782;28;20129;-67
2022/08/13 02:52:53;;;;;;;5.22;3.40;;;16.30;99.90;;;;;;5033713;28;20049;-67
2022/08/13 02:55:22;;;;;;;4.70;3.30;;;16.20;99.90;;;;;;5033893;28;20509;-67
2022/08/13 02:57:49;;;;;;;4.13;3.35;;;16.30;99.90;;;;;;5033599;28;20045;-67
2022/08/13 03:00:18;;;;;;;5.38;3.20;;;16.30;99.90;;;;;;5033505;28;20045;-67
2022/08/13 03:02:44;;;;;;;5.28;3.97;;;16.30;99.90;;;;;;5016400;28;20049;-68
2022/08/13 03:05:15;;;;;;;5.75;3.67;;;16.30;99.90;;;;;;5034038;28;20073;-67
2022/08/13 03:07:42;;;;;;;5.32;3.55;;;16.30;99.90;;;;;;5034111;28;20052;-67
2022/08/13 03:10:11;;;;;;;5.18;3.60;;;16.20;99.90;;;;;;5033501;28;20413;-67
2022/08/13 03:12:44;;;;;;;5.22;3.30;;;16.10;99.90;;;;;;5033086;28;20482;-67
2022/08/13 03:15:11;;;;;;;4.35;3.28;;;16.00;99.90;;;;;;5033368;28;20129;-67
2022/08/13 03:17:38;;;;;;;4.07;3.55;;;15.90;99.90;;;;;;5033590;28;20052;-67
2022/08/13 03:20:18;;;;;;;4.60;3.47;;;15.90;99.90;;;;;;5033417;28;20555;-67
2022/08/13 03:22:48;;;;;;;4.13;3.33;;;16.00;99.90;;;;;;5015834;28;20049;-67
2022/08/13 03:25:14;;;;;;;4.20;3.80;;;15.90;99.90;;;;;;5033311;28;20045;-67
2022/08/13 03:27:40;;;;;;;4.43;3.72;;;15.90;99.90;;;;;;5033168;28;20080;-68
2022/08/13 03:30:06;;;;;;;4.85;3.88;;;15.90;99.90;;;;;;5033459;28;20057;-68
2022/08/13 03:32:43;;;;;;;4.20;3.70;;;15.90;99.90;;;;;;5033057;28;20063;-68
2022/08/13 03:35:14;;;;;;;5.20;3.77;;;15.80;99.90;;;;;;5015585;28;20049;-67
2022/08/13 03:37:41;;;;;;;4.40;3.25;;;15.80;99.90;;;;;;5033217;28;20045;-67
2022/08/13 03:40:08;;;;;;;4.35;3.70;;;15.80;99.90;;;;;;5000142;28;20046;-68
2022/08/13 03:42:35;;;;;;;5.53;3.60;;;15.80;99.90;;;;;;5033033;28;20054;-68
2022/08/13 03:45:02;;;;;;;4.85;3.80;;;15.80;99.90;;;;;;5032799;28;20107;-68
2022/08/13 03:47:28;;;;;;;5.65;4.25;;;15.90;99.90;;;;;;5033130;28;20045;-68
2022/08/13 03:49:53;;;;;;;5.53;4.18;;;15.90;99.90;;;;;;5033742;28;20084;-67
2022/08/13 03:52:20;;;;;;;5.10;3.85;;;16.00;99.90;;;;;;5033248;28;20046;-67
2022/08/13 03:54:46;;;;;;;5.10;4.28;;;16.00;99.90;;;;;;5036274;28;20135;-67
2022/08/13 03:57:12;;;;;;;4.68;3.90;;;16.00;99.90;;;;;;5037492;28;20087;-67
2022/08/13 03:59:40;;;;;;;5.57;3.72;;;16.00;99.90;;;;;;5037060;28;20048;-67
2022/08/13 04:02:06;;;;;;;5.18;3.85;;;15.80;99.90;;;;;;5036865;28;20482;-67
2022/08/13 04:04:32;;;;;;;5.03;3.72;;;15.70;99.90;;;;;;5037587;28;20045;-67
2022/08/13 04:06:59;;;;;;;5.57;3.72;;;15.70;99.90;;;;;;5037267;28;20470;-67
2022/08/13 04:09:24;;;;;;;4.38;3.80;;;15.70;99.90;;;;;;5036387;28;20046;-67
2022/08/13 04:11:50;;;;;;;4.80;3.88;;;15.70;99.90;;;;;;5035876;28;20056;-67
2022/08/13 04:14:16;;;;;;;4.70;3.47;;;15.60;99.90;;;;;;5036305;28;20045;-67
2022/08/13 04:16:41;;;;;;;4.95;3.92;;;15.50;99.90;;;;;;5036411;28;20060;-67
2022/08/13 04:19:07;;;;;;;5.65;4.20;;;15.40;99.90;;;;;;5036468;28;20085;-67
2022/08/13 04:21:35;;;;;;;4.07;3.50;;;15.30;99.90;;;;;;5018719;28;20045;-67
2022/08/13 04:24:04;;;;;;;6.57;4.28;;;15.30;99.90;;;;;;5036976;28;20385;-67
2022/08/13 04:26:31;;;;;;;6.28;4.13;;;15.30;99.90;;;;;;5036141;28;20482;-67
2022/08/13 04:28:57;;;;;;;3.95;3.38;;;15.30;99.90;;;;;;5036405;28;20067;-67
2022/08/13 04:31:24;;;;;;;4.05;3.65;;;15.40;99.90;;;;;;5037347;28;20065;-67
2022/08/13 04:33:51;;;;;;;4.38;3.55;;;15.40;99.90;;;;;;5036340;28;20470;-67
2022/08/13 04:36:17;;;;;;;4.05;3.53;;;15.50;99.90;;;;;;5018735;28;20037;-67
2022/08/13 04:38:43;;;;;;;4.80;4.10;;;15.60;99.90;;;;;;5036755;28;20060;-68
2022/08/13 04:41:09;;;;;;;4.70;3.55;;;15.70;99.90;;;;;;5035946;28;20432;-67
2022/08/13 04:43:35;;;;;;;5.38;3.53;;;15.70;99.90;;;;;;5018755;28;20048;-68
2022/08/13 04:46:00;;;;;;;5.35;3.70;;;15.70;99.90;;;;;;5036061;28;20041;-67
2022/08/13 04:48:28;;;;;;;4.88;3.83;;;15.70;99.90;;;;;;5036108;28;20131;-67
2022/08/13 04:50:55;;;;;;;6.25;3.95;;;15.70;99.90;;;;;;5036045;28;20049;-67
2022/08/13 04:53:33;;;;;;;4.60;4.10;;;15.70;99.90;;;;;;5035913;28;20150;-68
2022/08/13 04:55:59;;;;;;;5.25;4.07;;;15.80;99.90;;;;;;5036773;28;20049;-67
2022/08/13 04:58:32;;;;;;;6.40;4.35;;;15.80;99.90;;;;;;5035936;28;20056;-67
2022/08/13 05:00:59;;;;;;;6.40;4.57;;;15.90;99.90;;;;;;5036416;28;20115;-67
2022/08/13 05:03:25;;;;;;;6.03;5.05;;;16.00;99.90;;;;;;5035825;28;20107;-67
2022/08/13 05:05:52;;;;;;;5.43;4.93;;;16.00;99.90;;;;;;5035573;28;20045;-67
2022/08/13 05:08:19;;;;;;;5.65;5.05;;;16.10;99.90;;;;;;5035729;28;20042;-67
2022/08/13 05:10:47;;;;;;;5.88;4.78;;;16.20;99.90;;;;;;5035664;28;20049;-67
2022/08/13 05:13:21;;;;;;;6.20;5.25;;;16.20;99.90;;;;;;5035703;28;20049;-67
2022/08/13 05:15:48;;;;;;;6.28;4.95;;;16.30;99.90;;;;;;5035669;28;20383;-67
2022/08/13 05:18:15;;;;;;;5.20;4.57;;;16.40;99.90;;;;;;5018123;28;20170;-67
2022/08/13 05:20:40;;;;;;;7.88;5.22;;;16.50;99.90;;;;;;5035523;28;20053;-67
2022/08/13 05:23:07;;;;;;;5.70;4.88;;;16.60;99.90;;;;;;5035187;28;20056;-67
2022/08/13 05:25:33;;;;;;;5.18;4.47;;;16.70;99.90;;;;;;5036087;28;20049;-67
2022/08/13 05:27:59;;;;;;;5.55;4.95;;;16.80;99.90;;;;;;5034984;28;20057;-67
2022/08/13 05:30:27;;;;;;;6.72;5.30;;;16.90;99.90;;;;;;5017639;28;20108;-67
2022/08/13 05:32:57;;;;;;;6.85;4.88;;;17.00;99.90;;;;;;5035303;28;20053;-67
2022/08/13 05:35:27;;;;;;;5.40;4.90;;;17.10;99.90;;;;;;5035723;28;20041;-67
2022/08/13 05:37:53;;;;;;;5.93;4.70;;;17.20;99.90;;;;;;5035079;28;20555;-67
2022/08/13 05:40:18;;;;;;;6.55;4.70;;;17.30;99.90;;;;;;5035166;28;20057;-67
2022/08/13 05:42:44;;;;;;;5.18;4.63;;;17.50;99.90;;;;;;5017364;28;20129;-67
2022/08/13 05:45:10;;;;;;;6.28;4.25;;;17.60;99.90;;;;;;5034979;28;20041;-67
2022/08/13 05:47:37;;;;;;;9.73;4.85;;;17.70;99.90;;;;;;5017601;28;20059;-67
2022/08/13 05:50:08;;;;;;;5.25;4.32;;;17.80;99.90;;;;;;5034956;28;20046;-67
2022/08/13 05:52:35;;;;;;;5.47;4.70;;;17.90;99.90;;;;;;5035307;28;20467;-67
2022/08/13 05:55:04;;;;;;;5.15;4.43;;;18.00;99.90;;;;;;5035271;28;20046;-67
2022/08/13 05:57:30;;;;;;;4.95;4.45;;;18.10;99.90;;;;;;5035063;28;20053;-67
2022/08/13 06:05:24;;;;;;;4.75;3.60;;;18.40;99.90;;;;;;5034716;28;20136;-67
2022/08/13 06:07:52;;;;;;;4.63;3.70;;;18.60;99.90;;;;;;5034629;28;20089;-67
2022/08/13 06:10:19;;;;;;;5.25;3.90;;;18.70;99.90;;;;;;5034221;28;20536;-67
2022/08/13 06:12:45;;;;;;;4.70;3.35;;;18.70;99.90;;;;;;5034522;28;20049;-67
2022/08/13 06:15:11;;;;;;;4.57;3.30;;;18.90;99.90;;;;;;5034360;28;20091;-67
2022/08/13 06:17:37;;;;;;;3.88;3.38;;;18.90;99.90;;;;;;5034119;28;20129;-67
2022/08/13 06:20:04;;;;;;;5.00;3.35;;;19.00;99.90;;;;;;5034341;28;20132;-67
2022/08/13 06:22:33;;;;;;;4.75;4.13;;;19.10;99.90;;;;;;5035081;28;20056;-67
2022/08/13 06:25:02;;;;;;;5.47;3.47;;;19.20;99.90;;;;;;5034349;28;20045;-67
2022/08/13 06:27:28;;;;;;;4.43;3.85;;;19.30;99.90;;;;;;5034447;28;20538;-67
2022/08/13 06:29:57;;;;;;;6.18;3.20;;;19.40;99.90;;;;;;5034011;28;20394;-67
2022/08/13 06:32:24;;;;;;;5.78;3.70;;;19.50;99.90;;;;;;5034177;28;20057;-68
2022/08/13 06:34:51;;;;;;;4.43;3.08;;;19.60;99.90;;;;;;5034031;28;20053;-67
2022/08/13 06:37:17;;;;;;;4.80;3.47;;;19.70;99.90;;;;;;5034082;28;20053;-67
2022/08/13 06:39:44;;;;;;;5.47;3.30;;;19.80;99.90;;;;;;5034034;28;20398;-67
2022/08/13 06:42:10;;;;;;;4.60;3.65;;;19.90;99.90;;;;;;5033960;28;20092;-67
2022/08/13 06:44:39;;;;;;;4.90;3.65;;;20.00;99.90;;;;;;5033749;28;20045;-68
2022/08/13 06:47:05;;;;;;;5.10;3.60;;;20.10;99.90;;;;;;5033803;28;20132;-68
2022/08/13 06:49:33;;;;;;;3.83;3.42;;;20.20;99.90;;;;;;5033756;28;20091;-67
2022/08/13 06:52:00;;;;;;;5.40;3.20;;;20.30;99.90;;;;;;5033812;28;20148;-67
2022/08/13 06:54:27;;;;;;;3.60;3.10;;;20.40;99.90;;;;;;5033660;28;20053;-67
2022/08/13 06:56:55;;;;;;;3.78;2.80;;;20.60;99.90;;;;;;5034238;28;20049;-64
2022/08/13 06:59:24;;;;;;;3.83;2.75;;;20.70;99.90;;;;;;5034240;28;20052;-64
2022/08/13 07:01:59;;;;;;;4.43;2.63;;;20.80;99.90;;;;;;5033327;28;20517;-63
2022/08/13 07:04:25;;;;;;;6.80;2.88;;;20.90;99.90;;;;;;5034118;28;20045;-64
2022/08/13 07:06:52;;;;;;;3.33;2.50;;;21.00;99.90;;;;;;5033974;28;20049;-64
2022/08/13 07:09:18;;;;;;;3.50;2.70;;;21.10;99.90;;;;;;5033544;28;20056;-63
2022/08/13 07:11:45;;;;;;;4.13;2.83;;;21.20;99.90;;;;;;5016027;28;20445;-63
2022/08/13 07:14:13;;;;;;;3.33;2.40;;;21.30;99.90;;;;;;5033948;28;20053;-64
2022/08/13 07:16:42;;;;;;;6.85;2.70;;;21.50;99.90;;;;;;5033133;28;20084;-63
2022/08/13 07:19:08;;;;;;;4.28;2.60;;;21.60;99.90;;;;;;5033396;28;20045;-64
2022/08/13 07:21:35;;;;;;;3.80;2.90;;;21.70;99.90;;;;;;5015420;28;20514;-64
2022/08/13 07:24:02;;;;;;;3.65;2.70;;;21.80;99.90;;;;;;5033763;28;20050;-64
2022/08/13 07:26:30;;;;;;;4.03;2.72;;;21.90;99.90;;;;;;5033337;28;20049;-63
2022/08/13 07:28:56;;;;;;;4.10;2.40;;;21.90;99.90;;;;;;5016677;28;20106;-63
2022/08/13 07:31:31;;;;;;;3.20;2.38;;;22.10;99.90;;;;;;5034022;28;20057;-63
2022/08/13 07:33:59;;;;;;;5.03;3.03;;;22.20;99.90;;;;;;5034127;28;20099;-64
2022/08/13 07:36:27;;;;;;;4.68;2.55;;;22.30;99.90;;;;;;5033361;28;20867;-64
2022/08/13 07:38:54;;;;;;;3.05;2.40;;;22.40;99.90;;;;;;5033162;28;20370;-64
2022/08/13 07:41:21;;;;;;;3.40;2.55;;;22.60;99.90;;;;;;5033603;28;20050;-64
2022/08/13 07:43:47;;;;;;;3.47;1.95;;;22.70;99.90;;;;;;5033144;28;20088;-63
2022/08/13 07:46:15;;;;;;;2.42;1.77;;;22.80;99.90;;;;;;5033537;28;20440;-64
2022/08/13 07:48:51;;;;;;;2.40;1.77;;;23.00;99.90;;;;;;5032794;28;20398;-64
2022/08/13 07:51:19;;;;;;;3.85;2.35;;;23.10;99.90;;;;;;5032863;28;20498;-64
2022/08/13 07:53:54;;;;;;;2.30;1.45;;;23.20;99.90;;;;;;5033049;28;20525;-64
2022/08/13 07:56:28;;;;;;;2.17;1.50;;;23.40;99.90;;;;;;5032915;28;20054;-65
2022/08/13 07:59:00;;;;;;;3.05;1.63;;;23.50;99.90;;;;;;5032371;28;20108;-65
2022/08/13 08:01:27;;;;;;;3.97;1.60;;;23.70;99.90;;;;;;5015681;28;20429;-65
2022/08/13 08:03:56;;;;;;;3.40;1.50;;;23.90;99.90;;;;;;5032862;28;20053;-65
2022/08/13 08:06:22;;;;;;;4.75;1.35;;;24.10;99.90;;;;;;5032777;28;20037;-65
2022/08/13 08:08:53;;;;;;;1.83;1.40;;;24.10;99.90;;;;;;5032731;28;20084;-65
2022/08/13 08:14:05;;;;;;;2.53;1.30;;;24.40;99.90;;;;;;5033295;28;20057;-64
2022/08/13 08:16:32;;;;;;;3.17;1.13;;;24.50;99.90;;;;;;5032609;28;20038;-65
2022/08/13 08:19:00;;;;;;;1.70;1.02;;;24.70;99.90;;;;;;5032529;28;20055;-65
2022/08/13 08:21:28;;;;;;;3.35;1.08;;;24.80;99.90;;;;;;5032685;28;20041;-65
2022/08/13 08:23:59;;;;;;;2.22;1.30;;;24.90;99.90;;;;;;5033185;28;20076;-65
2022/08/13 08:26:30;;;;;;;3.25;1.30;;;25.10;99.90;;;;;;5015025;28;20080;-65
2022/08/13 08:28:57;;;;;;;2.55;1.10;;;25.20;99.90;;;;;;5032913;28;20045;-64
2022/08/13 08:31:24;;;;;;;2.17;1.30;;;25.30;99.90;;;;;;5033133;28;20057;-65
2022/08/13 08:33:51;;;;;;;2.13;1.20;;;25.40;99.90;;;;;;5032866;28;20565;-64
2022/08/13 08:36:18;;;;;;;2.83;1.25;;;25.60;99.90;;;;;;5032209;28;20076;-64
2022/08/13 08:44:23;;;;;;;3.00;1.03;;;26.00;99.90;;;;;;5005733;28;20395;-64
2022/08/13 08:46:53;;;;;;;1.80;1.10;;;26.10;99.90;;;;;;5036495;28;20165;-65
2022/08/13 08:49:21;;;;;;;1.83;1.15;;;26.10;99.90;;;;;;5035723;28;20487;-65
2022/08/13 08:51:49;;;;;;;2.38;1.02;;;26.20;99.90;;;;;;5036491;28;20053;-66
2022/08/13 08:54:20;;;;;;;1.83;1.08;;;26.40;99.90;;;;;;5035982;28;20112;-65
2022/08/13 08:56:47;;;;;;;2.22;1.42;;;26.50;99.90;;;;;;5036449;28;20220;-66
2022/08/13 08:59:14;;;;;;;3.40;1.33;;;26.60;99.90;;;;;;5036396;28;20055;-66
2022/08/13 09:01:42;;;;;;;1.65;1.15;;;26.70;99.90;;;;;;5018272;28;20136;-65
2022/08/13 09:04:09;;;;;;;2.42;1.00;;;26.90;99.90;;;;;;5035625;28;20046;-66
2022/08/13 09:06:35;;;;;;;1.77;1.10;;;26.90;99.90;;;;;;5035625;28;20482;-66
2022/08/13 09:09:02;;;;;;;2.60;1.20;;;27.00;99.90;;;;;;5018471;28;20054;-67
2022/08/13 09:11:34;;;;;;;2.08;1.20;;;27.10;99.90;;;;;;5035433;28;20053;-66
2022/08/13 09:14:03;;;;;;;1.58;1.10;;;27.30;99.90;;;;;;5035589;28;20541;-65
2022/08/13 09:16:29;;;;;;;1.98;1.20;;;27.40;99.90;;;;;;5035940;28;20041;-66
2022/08/13 09:18:56;;;;;;;2.08;1.10;;;27.50;99.30;;;;;;5035304;28;20103;-66
2022/08/13 09:21:22;;;;;;;2.35;1.08;;;27.60;98.90;;;;;;5035364;28;20046;-66
2022/08/13 09:23:48;;;;;;;1.95;1.10;;;27.70;98.60;;;;;;5035040;28;20045;-66
2022/08/13 09:26:17;;;;;;;2.53;1.10;;;27.80;97.90;;;;;;5035173;28;20041;-66
2022/08/13 09:28:42;;;;;;;1.42;0.95;;;27.90;97.30;;;;;;5035270;28;20064;-66
2022/08/13 09:31:10;;;;;;;1.88;1.10;;;28.00;96.90;;;;;;5035171;28;20057;-65
2022/08/13 09:33:38;;;;;;;2.22;0.90;;;28.00;96.80;;;;;;5035572;28;20053;-65
2022/08/13 09:36:09;;;;;;;1.63;0.90;;;28.10;96.60;;;;;;5035247;28;20143;-65
2022/08/13 09:38:36;;;;;;;1.63;1.08;;;28.20;95.60;;;;;;5035336;28;20128;-65
2022/08/13 09:41:08;;;;;;;2.38;1.10;;;28.30;95.90;;;;;;5035415;28;20187;-65
2022/08/13 09:43:40;;;;;;;3.45;1.20;;;28.30;95.60;;;;;;5017356;28;20120;-65
2022/08/13 09:46:07;;;;;;;1.83;1.10;;;28.40;95.00;;;;;;5035050;28;20037;-66
2022/08/13 09:48:33;;;;;;;2.13;1.10;;;28.50;94.60;;;;;;5017396;28;20116;-66
2022/08/13 09:51:02;;;;;;;1.67;1.00;;;28.50;94.10;;;;;;5033779;28;20451;-66
2022/08/13 09:53:28;;;;;;;2.42;1.10;;;28.50;93.80;;;;;;5017636;28;20442;-65
2022/08/13 09:55:54;;;;;;;2.30;1.42;;;28.60;93.20;;;;;;5034885;28;20121;-65
2022/08/13 09:58:22;;;;;;;1.83;1.00;;;28.60;92.70;;;;;;5034686;28;20057;-65
2022/08/13 10:00:48;;;;;;;1.63;1.10;;;28.50;92.30;;;;;;5034582;28;20063;-65
2022/08/13 10:03:17;;;;;;;1.92;1.00;;;28.50;92.20;;;;;;5034472;28;20045;-65
2022/08/13 10:05:45;;;;;;;2.50;1.08;;;28.50;92.00;;;;;;5034520;28;20049;-66
2022/08/13 10:08:16;;;;;;;2.55;1.00;;;28.60;92.20;;;;;;5034918;28;20049;-66
2022/08/13 10:10:42;;;;;;;1.90;0.90;;;28.60;92.10;;;;;;5034406;28;20124;-65
2022/08/13 10:13:08;;;;;;;1.50;1.05;;;28.60;91.60;;;;;;5034917;28;20457;-65
2022/08/13 10:15:34;;;;;;;1.90;1.17;;;28.70;91.10;;;;;;5034258;28;20064;-65
2022/08/13 10:18:02;;;;;;;2.92;0.93;;;28.80;90.70;;;;;;5016520;28;20045;-66
2022/08/13 10:20:33;;;;;;;1.92;0.90;;;28.70;90.30;;;;;;5034252;28;20091;-66
2022/08/13 10:23:01;;;;;;;2.50;1.20;;;28.80;90.10;;;;;;5034800;28;20478;-66
2022/08/13 10:25:28;;;;;;;2.25;1.08;;;28.80;90.10;;;;;;5034263;28;20099;-66
2022/08/13 10:27:55;;;;;;;1.55;0.93;;;28.80;90.00;;;;;;5034126;28;20053;-66
2022/08/13 10:30:26;;;;;;;2.47;1.10;;;28.80;89.10;;;;;;5034136;28;20146;-66
2022/08/13 10:32:56;;;;;;;1.52;0.93;;;28.80;89.00;;;;;;5016834;28;20046;-65
2022/08/13 10:35:27;;;;;;;2.17;0.98;;;28.90;88.90;;;;;;5033611;28;20490;-66
2022/08/13 10:37:55;;;;;;;1.83;1.20;;;29.00;88.60;;;;;;5033864;28;20052;-65
2022/08/13 10:40:22;;;;;;;2.00;1.00;;;29.10;87.50;;;;;;5033906;28;20085;-65
2022/08/13 10:42:48;;;;;;;1.60;0.90;;;29.00;86.90;;;;;;5033807;28;20048;-66
2022/08/13 10:45:14;;;;;;;1.60;1.10;;;29.10;87.40;;;;;;5034003;28;20359;-65
2022/08/13 10:47:48;;;;;;;1.60;1.10;;;29.10;87.10;;;;;;5016026;28;20060;-65
2022/08/13 10:50:16;;;;;;;2.58;1.10;;;29.10;85.40;;;;;;5034083;28;20045;-66
2022/08/13 10:52:42;;;;;;;2.00;1.40;;;29.10;86.00;;;;;;5016049;28;20072;-66
2022/08/13 10:55:11;;;;;;;1.50;1.00;;;29.10;84.60;;;;;;5015961;28;20481;-66
2022/08/13 10:57:42;;;;;;;1.48;0.90;;;29.10;85.20;;;;;;5033736;28;20111;-66
2022/08/13 11:00:11;;;;;;;1.65;0.95;;;29.10;84.30;;;;;;5033953;28;20077;-65
2022/08/13 11:02:37;;;;;;;1.80;1.10;;;29.10;84.00;;;;;;5033448;28;20081;-65
2022/08/13 11:05:07;;;;;;;1.88;0.90;;;29.20;83.90;;;;;;5033557;28;20386;-65
2022/08/13 11:07:38;;;;;;;2.47;1.30;;;29.20;84.20;;;;;;5033541;28;20115;-65
2022/08/13 11:10:08;;;;;;;2.25;1.20;;;29.30;83.80;;;;;;5034067;28;20061;-65
2022/08/13 11:12:36;;;;;;;2.70;1.08;;;29.30;83.80;;;;;;5033501;28;20046;-65
2022/08/13 11:15:04;;;;;;;1.90;0.90;;;29.30;83.90;;;;;;5033214;28;20513;-65
2022/08/13 11:17:29;;;;;;;1.73;1.00;;;29.40;83.70;;;;;;5033184;28;20045;-65
2022/08/13 11:19:55;;;;;;;1.70;1.00;;;29.30;83.50;;;;;;5033830;28;20166;-65
2022/08/13 11:22:23;;;;;;;2.47;1.20;;;29.40;83.00;;;;;;5033269;28;20071;-66
2022/08/13 11:24:49;;;;;;;2.47;1.00;;;29.40;82.90;;;;;;5033176;28;20049;-65
2022/08/13 11:27:16;;;;;;;1.48;1.00;;;29.40;83.40;;;;;;5033951;28;20044;-67
2022/08/13 11:29:42;;;;;;;2.28;1.15;;;29.50;83.10;;;;;;5033067;28;20048;-64
2022/08/13 11:32:08;;;;;;;2.13;0.90;;;29.50;82.90;;;;;;5033491;28;20037;-64
2022/08/13 11:34:33;;;;;;;2.03;1.00;;;29.60;82.60;;;;;;5033562;28;20049;-65
2022/08/13 11:37:00;;;;;;;1.70;1.10;;;29.60;82.30;;;;;;5033496;28;20099;-66
2022/08/13 11:39:25;;;;;;;2.17;1.05;;;29.60;81.50;;;;;;5033532;28;20050;-66
2022/08/13 11:41:51;;;;;;;2.13;1.08;;;29.60;81.70;;;;;;5033384;28;20064;-65
2022/08/13 11:44:17;;;;;;;1.80;0.95;;;29.60;81.50;;;;;;5033154;28;20038;-66
2022/08/13 11:46:43;;;;;;;1.58;1.00;;;29.70;81.30;;;;;;5033199;28;20080;-65
2022/08/13 11:49:10;;;;;;;1.55;1.00;;;29.70;80.60;;;;;;5033180;28;20092;-65
2022/08/13 11:51:39;;;;;;;1.50;1.00;;;29.70;79.70;;;;;;5033175;28;20045;-65
2022/08/13 11:54:05;;;;;;;2.13;1.00;;;29.70;80.10;;;;;;5032968;28;20045;-65
2022/08/13 11:56:31;;;;;;;2.45;1.10;;;29.60;79.90;;;;;;5033269;28;20039;-65
2022/08/13 11:58:56;;;;;;;2.80;1.30;;;29.60;80.10;;;;;;5033530;28;20040;-65
2022/08/13 12:01:22;;;;;;;3.22;1.10;;;29.70;79.80;;;;;;5015698;28;20095;-66
2022/08/13 12:03:48;;;;;;;1.80;1.23;;;29.60;79.50;;;;;;5032964;28;20044;-65
2022/08/13 12:06:14;;;;;;;3.20;1.17;;;29.70;80.20;;;;;;5032847;28;20037;-65
2022/08/13 12:08:40;;;;;;;2.10;1.17;;;29.70;80.10;;;;;;5033001;28;20049;-66
2022/08/13 12:11:06;;;;;;;1.73;1.20;;;29.80;80.00;;;;;;5032913;28;20415;-65
2022/08/13 12:13:32;;;;;;;3.13;1.10;;;29.80;79.90;;;;;;5032832;28;20075;-66
2022/08/13 12:15:58;;;;;;;2.03;1.52;;;29.80;79.80;;;;;;5036069;28;20128;-64
2022/08/13 12:18:23;;;;;;;1.60;1.05;;;29.80;80.30;;;;;;5036927;28;20045;-66
2022/08/13 12:20:49;;;;;;;2.85;1.20;;;29.80;80.10;;;;;;5036485;28;20488;-66
2022/08/13 12:23:15;;;;;;;1.98;1.20;;;29.90;80.20;;;;;;5036544;28;20042;-66
2022/08/13 12:25:41;;;;;;;2.17;1.23;;;29.90;80.00;;;;;;5036503;28;20058;-65
2022/08/13 12:28:22;;;;;;;2.53;1.08;;;29.90;80.10;;;;;;5037087;28;20124;-66
2022/08/13 12:30:51;;;;;;;3.03;1.30;;;30.10;79.10;;;;;;5036773;28;20355;-66
2022/08/13 12:33:17;;;;;;;4.18;1.30;;;30.10;78.00;;;;;;5037201;28;20157;-65
2022/08/13 12:35:44;;;;;;;2.35;1.20;;;30.10;77.30;;;;;;5036412;28;20034;-65
2022/08/13 12:38:12;;;;;;;2.45;1.25;;;30.10;78.00;;;;;;5018500;28;20524;-65
2022/08/13 12:40:39;;;;;;;2.63;1.23;;;30.20;79.00;;;;;;5036309;28;20045;-65
2022/08/13 12:43:05;;;;;;;2.13;1.40;;;30.20;78.60;;;;;;5036286;28;20076;-66
2022/08/13 12:45:33;;;;;;;1.60;1.25;;;30.20;78.40;;;;;;5036281;28;20045;-65
2022/08/13 12:48:07;;;;;;;2.90;1.20;;;30.20;78.70;;;;;;5036140;28;20044;-66
2022/08/13 12:50:34;;;;;;;2.22;1.20;;;30.20;78.70;;;;;;5036743;28;20053;-67
2022/08/13 12:53:00;;;;;;;1.80;1.30;;;30.20;79.10;;;;;;5036129;28;20132;-66
2022/08/13 12:55:26;;;;;;;2.40;1.30;;;30.20;78.70;;;;;;5018929;28;20121;-66
2022/08/13 12:57:52;;;;;;;2.80;1.20;;;30.20;78.50;;;;;;5035977;28;20059;-65
2022/08/13 13:00:18;;;;;;;2.25;1.05;;;30.20;78.20;;;;;;5036034;28;20176;-65
2022/08/13 13:02:45;;;;;;;1.90;1.20;;;30.10;78.30;;;;;;5019186;28;20080;-65
2022/08/13 13:05:11;;;;;;;3.13;1.20;;;30.10;78.40;;;;;;5035966;28;20044;-65
2022/08/13 13:07:37;;;;;;;1.80;1.23;;;30.10;78.40;;;;;;5035724;28;20045;-65
2022/08/13 13:10:03;;;;;;;2.97;1.55;;;30.00;78.50;;;;;;5035738;28;20488;-65
2022/08/13 13:12:29;;;;;;;2.90;1.58;;;29.90;78.40;;;;;;5035477;28;20464;-65
2022/08/13 13:14:55;;;;;;;1.52;1.10;;;29.70;78.40;;;;;;5035860;28;20117;-65
2022/08/13 13:17:20;;;;;;;2.80;1.38;;;29.60;78.80;;;;;;5035820;28;20428;-66
2022/08/13 13:19:47;;;;;;;3.55;1.40;;;29.50;79.00;;;;;;5035589;28;20045;-65